Alta Val Martello
31/08/2026, 03:15
Dati in tempo reale















57 Stazioni meteorologiche
| Preferiti | Stazione | Quota | Data - Ora |
t (°C) |
N (mm) |
ff (km/h) |
bb (km/h) |
dd |
rH (%) |
p (hPa) |
sd (h) |
EG (W/m²) |
|---|---|---|---|---|---|---|---|---|---|---|---|---|
| Alta Val Martello | 1714 m | 31/08/2026, 03:15 | 11.8 | 0.0 | 5.4 | 13.0 | S(189.3°) | 94 | 1020.3 | 00:00 | 0 | |
| Anterselva di Sopra | 1327 m | 31/08/2026, 03:15 | 15.5 | 0.0 | 1.1 | 2.9 | NO(325.1°) | 100 | 1015.4 | 00:00 | 0 | |
| Barbiano Colma | 463 m | 31/08/2026, 03:15 | 17.9 | 0.0 | 2.9 | 5.4 | NO(331.4°) | 91 | 1015.2 | 00:00 | 0 | |
| Bolzano | 245 m | 31/08/2026, 03:15 | 20.9 | 0.0 | 4.3 | 7.9 | SO(240.1°) | 82 | 1014.3 | 00:00 | 0 | |
| Bressanone | 585 m | 31/08/2026, 03:15 | 19.4 | 0.0 | 1.4 | 2.9 | S(183°) | 89 | 1014.8 | 00:00 | 0 | |
| Bronzolo | 227 m | 31/08/2026, 03:15 | 18.2 | 0.0 | 1.8 | 4.0 | S(200°) | 98 | 1014.6 | 00:00 | 0 | |
| Brunico | 831 m | 31/08/2026, 03:15 | 18.9 | 0.0 | 5.0 | 8.6 | S(171.5°) | 74 | 1015.3 | 00:00 | 0 | |
| Caldaro Pianizza di Sopra | 492 m | 31/08/2026, 03:15 | 19.9 | 0.0 | 2.5 | 5.0 | E(72.2°) | 77 | 1015.6 | 00:00 | 0 | |
| Campo Tures Molini | 850 m | 31/08/2026, 03:15 | 17.3 | 0.0 | 2.2 | 6.5 | N(10.5°) | 100 | 1015.6 | 00:00 | 0 | |
| Corvara | 1530 m | 31/08/2026, 03:15 | 11.8 | 0.0 | 0.7 | 4.3 | SO(240.9°) | 98 | 1017.2 | 00:00 | 0 | |
| Dobbiaco | 1218 m | 31/08/2026, 03:15 | 12.3 | 0.0 | 2.9 | 5.4 | E(101.7°) | 95 | 1018.7 | 00:00 | 0 | |
| Fie' allo Sciliar | 840 m | 31/08/2026, 03:15 | 18.3 | 0.0 | 0.7 | 2.9 | NE(60.5°) | 80 | 1018.1 | 00:00 | 0 | |
| Fleres | 1152 m | 31/08/2026, 03:15 | 15.6 | 0.0 | 0.7 | 2.9 | SO(240.3°) | 98 | 1015.4 | 00:00 | 0 | |
| Fortezza Le Cave | 833 m | 31/08/2026, 03:15 | 17.8 | 0.0 | 1.8 | 5.8 | E(72.6°) | 84 | 1013.7 | - | - | |
| Fundres | 1169 m | 31/08/2026, 03:15 | 16.9 | 0.0 | 1.1 | 5.4 | SO(223.1°) | 82 | 1013.6 | 00:00 | 0 | |
| Funes | 1327 m | 31/08/2026, 03:15 | 15.2 | 0.0 | 3.2 | 6.8 | N(353.8°) | 84 | 1015.7 | 00:00 | 0 | |
| Gargazzone | 253 m | 31/08/2026, 03:15 | 19.3 | 0.0 | 0.7 | 5.0 | SO(234.6°) | 100 | 1015.3 | 00:00 | 0 | |
| Laimburg | 224 m | 31/08/2026, 03:15 | 17.9 | 0.0 | 2.2 | 4.0 | S(191.5°) | 95 | 1016.8 | 00:00 | 0 | |
| Lasa Oris | 874 m | 31/08/2026, 03:15 | 12.8 | 0.0 | 3.6 | 5.4 | S(187.7°) | 100 | 1017.7 | 00:00 | 0 | |
| Merano | 333 m | 31/08/2026, 03:15 | 20.8 | 0.0 | 3.6 | 7.2 | N(340°) | 93 | 1015.0 | 00:00 | 0 | |
| Monguelfo | 1129 m | 31/08/2026, 03:15 | 12.2 | 0.0 | 3.6 | 6.8 | SE(117.7°) | 100 | 1018.4 | 00:00 | 0 | |
| Monte Maria | 1312 m | 31/08/2026, 03:15 | 16.3 | 0.0 | - | - | - | 85 | 1015.1 | 00:00 | 0 | |
| Naturno | 537 m | 31/08/2026, 03:15 | 17.4 | 0.0 | 4.3 | 6.8 | O(289.9°) | 88 | 1017.1 | 00:00 | 0 | |
| Nova Levante | 1126 m | 31/08/2026, 03:15 | 14.4 | 0.0 | - | - | - | 95 | 1017.6 | 00:00 | 0 | |
| Nova Ponente | 1470 m | 31/08/2026, 03:15 | 15.9 | 0.0 | 2.9 | 6.1 | SO(209.8°) | 78 | 1014.3 | 00:00 | 0 | |
| Ora | 254 m | 31/08/2026, 03:15 | 21.1 | 0.0 | - | - | - | 78 | 1014.8 | 00:00 | 0 | |
| Passo di Costalunga | 1713 m | 31/08/2026, 03:15 | 11.5 | 0.0 | 9.0 | 13.3 | E(87.7°) | 90 | 1016.9 | 00:00 | 0 | |
| Pennes | 1452 m | 31/08/2026, 03:15 | 14.2 | 0.0 | - | - | - | 100 | 1016.4 | - | - | |
| Plan | 1622 m | 31/08/2026, 03:15 | 12.4 | 0.0 | 1.8 | 4.3 | NO(314.1°) | 100 | 1016.7 | 00:00 | 0 | |
| Plata in Passiria | 1143 m | 31/08/2026, 03:15 | 16.2 | 0.0 | 2.5 | 4.0 | S(181.8°) | 88 | 1015.7 | 00:00 | 0 | |
| Predoi | 1448 m | 31/08/2026, 03:15 | 13.7 | 0.1 | 0.0 | 2.5 | NE(38.6°) | 100 | 1015.9 | 00:00 | 0 | |
| Redagno | 1550 m | 31/08/2026, 03:15 | 13.5 | 0.0 | 2.9 | 4.3 | NE(54.2°) | 83 | 1017.1 | 00:00 | 0 | |
| Renon Siffian | 989 m | 31/08/2026, 03:15 | 18.5 | 0.0 | 4.0 | 6.5 | N(353.2°) | 73 | 1014.8 | 00:00 | 0 | |
| Ridanna | 1365 m | 31/08/2026, 03:15 | 16.1 | 0.0 | - | - | - | 86 | 1018.0 | - | - | |
| Riva di Tures | 1562 m | 31/08/2026, 03:15 | 12.8 | 0.0 | 0.7 | 5.8 | O(259°) | 100 | 1016.3 | 00:00 | 0 | |
| S. Maddalena in Casies | 1414 m | 31/08/2026, 03:15 | 14.1 | 0.0 | 4.7 | 6.8 | N(359.3°) | 100 | 1020.3 | 00:00 | 0 | |
| S. Martino in Badia | 1151 m | 31/08/2026, 03:15 | 13.1 | 0.0 | 2.2 | 5.8 | SE(146.2°) | 100 | 1020.0 | 00:00 | 0 | |
| S. Martino in Passiria | 588 m | 31/08/2026, 03:15 | 19.2 | 0.0 | 1.8 | 4.0 | NE(66.6°) | 94 | 1016.2 | 00:00 | 0 | |
| S. Valburga | 1142 m | 31/08/2026, 03:15 | 15.4 | 0.0 | 8.3 | 10.4 | O(255.5°) | 100 | 1016.7 | 00:00 | 0 | |
| S. Valentino alla Muta | 1500 m | 31/08/2026, 03:15 | 14.8 | 0.0 | 7.6 | 11.5 | SO(210.6°) | 100 | 1015.1 | 00:00 | 0 | |
| S. Vito di Braies | 1350 m | 31/08/2026, 03:15 | 11.5 | 0.0 | - | - | - | 100 | 1020.2 | - | - | |
| Salorno | 214 m | 31/08/2026, 03:15 | 19.5 | 0.0 | 1.1 | 3.6 | O(283.6°) | 84 | 1016.1 | 00:00 | 0 | |
| San Genesio | 972 m | 31/08/2026, 03:15 | 17.5 | 0.0 | 0.7 | 4.0 | SO(213.5°) | 97 | 1015.5 | 00:00 | 0 | |
| Sarentino | 970 m | 31/08/2026, 03:15 | 16.6 | 0.0 | 2.5 | 5.0 | NE(28.2°) | 100 | 1016.0 | 00:00 | 0 | |
| Selva dei Molini | 1140 m | 31/08/2026, 03:15 | 15.3 | 0.0 | - | - | - | 100 | 1016.6 | - | - | |
| Selva di V. Gardena | 1594 m | 31/08/2026, 03:15 | 11.1 | 0.0 | - | - | - | 95 | 1018.1 | - | - | |
| Senales Vernago | 1697 m | 31/08/2026, 03:15 | 12.9 | 0.0 | - | - | - | 100 | 1017.4 | - | - | |
| Sesto | 1322 m | 31/08/2026, 03:15 | 10.1 | 0.0 | 1.1 | 2.9 | SE(126.8°) | 100 | 1017.1 | 00:00 | 0 | |
| Silandro | 698 m | 31/08/2026, 03:15 | 17.9 | 0.0 | 11.5 | 17.6 | O(274.4°) | 100 | 1016.3 | 00:00 | 0 | |
| Solda | 1902 m | 31/08/2026, 03:15 | 10.3 | 0.0 | - | - | - | 100 | 1017.1 | 00:00 | 0 | |
| Terento | 1350 m | 31/08/2026, 03:15 | 16.7 | 0.0 | 1.1 | 3.2 | SE(113.7°) | 82 | 1014.7 | 00:00 | 0 | |
| Ultimo Fontana Bianca | 1883 m | 31/08/2026, 03:15 | 10.6 | 0.0 | - | - | - | 99 | 1017.9 | 00:00 | 0 | |
| Val di Vizze San Giacomo | 1438 m | 31/08/2026, 03:15 | 13.4 | 0.0 | 1.4 | 5.0 | SE(133.6°) | 100 | 1016.2 | 00:00 | 0 | |
| Vallelunga Grub | 1844 m | 31/08/2026, 03:15 | 11.0 | 0.0 | 3.6 | 5.8 | NE(59.9°) | 100 | 1016.4 | 00:00 | 0 | |
| Valles | 1409 m | 31/08/2026, 03:15 | 14.8 | 0.0 | 0.4 | 2.2 | E(75.5°) | 92 | 1016.8 | 00:00 | 0 | |
| Vandoies | 747 m | 31/08/2026, 03:15 | 18.1 | 0.0 | 3.2 | 5.4 | E(96.8°) | 93 | 1015.8 | 00:00 | 0 | |
| Vipiteno | 939 m | 31/08/2026, 03:15 | 17.2 | 0.0 | 1.8 | 2.9 | E(94.6°) | 100 | 1016.1 | 00:00 | 0 |
Legenda dei valori misurati:
t:Temperatura dell'aria (°C)
N:Precipitazioni dalla mezzanotte (mm)
ff:Velocità media del vento (km/h)
bb:Raffiche di vento (km/h)
dd:Direzione del vento
rH:Umidità relativa (%)
p:Pressione dell'aria (hPa)
sd:Durata dell'insolazione giornaliera (h)
EG:Radiazione solare globale (W/m²)